Time;durP1;ratioP1;P1;durP2;ratioP2;P2;SDS_P1;SDS_P2;PMS_P1;PMS_P2;Temp;Humidity;BMP_temperature;BMP_pressure;BME280_temperature;BME280_humidity;BME280_pressure;Samples;Min_cycle;Max_cycle;Signal;HPM_P1;HPM_P2
2022/08/14 00:01:14;;;;;;;7.63;4.60;;;21.90;57.70;;;;;;5054652;28;20524;-57
2022/08/14 00:03:41;;;;;;;4.63;4.23;;;21.90;57.90;;;;;;5054884;28;20456;-57
2022/08/14 00:06:10;;;;;;;8.60;4.10;;;21.60;58.10;;;;;;5054600;28;20453;-57
2022/08/14 00:08:38;;;;;;;5.30;4.30;;;21.60;58.40;;;;;;5054564;28;20535;-58
2022/08/14 00:11:05;;;;;;;4.93;4.50;;;21.60;58.60;;;;;;5054817;28;20509;-58
2022/08/14 00:13:34;;;;;;;4.87;4.47;;;21.70;58.30;;;;;;5054604;28;20842;-57
2022/08/14 00:16:01;;;;;;;5.00;4.60;;;21.80;58.60;;;;;;5054471;28;20544;-57
2022/08/14 00:18:29;;;;;;;8.10;5.10;;;21.80;58.30;;;;;;5054705;28;20477;-57
2022/08/14 00:20:57;;;;;;;5.10;4.70;;;21.50;58.60;;;;;;5053976;28;20469;-57
2022/08/14 00:23:26;;;;;;;4.87;4.43;;;21.30;59.00;;;;;;5054189;28;20460;-57
2022/08/14 00:25:56;;;;;;;4.80;4.40;;;21.20;59.30;;;;;;5054514;28;20499;-58
2022/08/14 00:28:26;;;;;;;5.60;4.73;;;21.30;59.60;;;;;;5054095;28;21023;-57
2022/08/14 00:30:58;;;;;;;4.90;4.50;;;21.40;59.40;;;;;;5054131;28;20465;-57
2022/08/14 00:33:27;;;;;;;11.07;5.00;;;21.30;59.40;;;;;;5054078;28;20517;-57
2022/08/14 00:35:54;;;;;;;4.87;4.43;;;21.40;59.50;;;;;;5054076;28;20445;-57
2022/08/14 00:38:22;;;;;;;5.07;4.60;;;21.40;59.50;;;;;;5054173;28;20449;-57
2022/08/14 00:40:52;;;;;;;5.50;4.50;;;21.30;59.50;;;;;;5054192;28;20477;-57
2022/08/14 00:43:19;;;;;;;5.67;4.63;;;21.30;59.80;;;;;;5054486;28;20537;-57
2022/08/14 00:45:47;;;;;;;4.43;4.07;;;21.30;59.80;;;;;;5053842;28;20433;-57
2022/08/14 00:48:17;;;;;;;10.40;4.37;;;21.30;59.80;;;;;;5053604;28;20521;-57
2022/08/14 00:50:45;;;;;;;6.50;4.40;;;21.00;60.10;;;;;;5053960;28;20535;-57
2022/08/14 00:53:15;;;;;;;5.13;4.63;;;20.80;60.80;;;;;;5053605;28;20452;-57
2022/08/14 00:55:46;;;;;;;5.53;5.03;;;20.60;61.40;;;;;;5053602;28;20437;-56
2022/08/14 00:58:33;;;;;;;5.10;4.63;;;20.60;61.70;;;;;;5053982;28;20425;-58
2022/08/14 01:01:02;;;;;;;7.60;5.67;;;20.70;62.00;;;;;;5053435;28;20488;-57
2022/08/14 01:03:30;;;;;;;5.43;4.93;;;20.80;62.20;;;;;;5053459;28;20946;-57
2022/08/14 01:05:58;;;;;;;5.13;4.63;;;20.90;62.80;;;;;;5053390;28;20453;-57
2022/08/14 01:08:27;;;;;;;5.03;4.63;;;20.80;62.30;;;;;;5053288;28;20488;-57
2022/08/14 01:10:56;;;;;;;5.20;4.70;;;20.80;62.40;;;;;;5053678;28;20573;-57
2022/08/14 01:13:28;;;;;;;5.03;4.53;;;20.60;62.90;;;;;;5053198;28;20477;-57
2022/08/14 01:15:58;;;;;;;5.60;4.80;;;20.50;63.70;;;;;;5053613;28;20898;-57
2022/08/14 01:21:13;;;;;;;5.57;5.07;;;20.60;64.40;;;;;;5053230;28;20512;-57
2022/08/14 01:23:44;;;;;;;5.60;5.20;;;20.60;64.40;;;;;;5053500;28;20502;-57
2022/08/14 01:26:14;;;;;;;6.30;5.07;;;20.60;64.80;;;;;;5053091;28;20528;-57
2022/08/14 01:28:43;;;;;;;9.03;5.03;;;20.70;64.90;;;;;;5052994;28;20504;-57
2022/08/14 01:31:14;;;;;;;5.30;4.90;;;20.50;65.00;;;;;;5053380;28;20523;-56
2022/08/14 01:33:46;;;;;;;6.67;5.07;;;20.30;65.70;;;;;;5053698;28;20433;-57
2022/08/14 01:36:16;;;;;;;6.40;5.80;;;20.20;66.30;;;;;;5053020;28;20433;-57
2022/08/14 01:38:47;;;;;;;7.27;5.20;;;20.10;67.00;;;;;;5052882;28;20948;-57
2022/08/14 01:41:16;;;;;;;5.93;4.57;;;20.20;67.50;;;;;;5053470;28;20473;-57
2022/08/14 01:43:47;;;;;;;5.70;5.20;;;20.10;67.80;;;;;;5053217;28;20495;-57
2022/08/14 01:46:15;;;;;;;5.77;5.00;;;20.30;68.10;;;;;;5052922;28;20433;-57
2022/08/14 01:48:44;;;;;;;6.23;5.33;;;20.40;67.80;;;;;;5052661;28;20857;-57
2022/08/14 01:51:13;;;;;;;7.57;6.50;;;20.30;67.50;;;;;;5053015;28;20469;-55
2022/08/14 01:53:42;;;;;;;7.87;5.50;;;20.30;67.30;;;;;;5053059;28;20461;-57
2022/08/14 01:56:12;;;;;;;5.07;4.63;;;20.30;67.60;;;;;;5053037;28;20507;-57
2022/08/14 01:58:41;;;;;;;6.30;5.27;;;20.20;68.70;;;;;;5052855;28;20496;-58
2022/08/14 02:01:08;;;;;;;5.60;5.20;;;20.30;68.50;;;;;;5053041;28;20469;-57
2022/08/14 02:03:40;;;;;;;6.40;5.80;;;20.30;68.60;;;;;;5052710;28;20991;-57
2022/08/14 02:06:10;;;;;;;6.70;6.20;;;20.30;68.50;;;;;;5052726;28;20532;-57
2022/08/14 02:08:39;;;;;;;6.80;6.20;;;20.20;68.90;;;;;;5052690;28;20905;-58
2022/08/14 02:11:21;;;;;;;5.87;5.27;;;20.00;70.30;;;;;;5052899;28;20477;-57
2022/08/14 02:13:53;;;;;;;6.33;5.83;;;19.90;71.10;;;;;;5052597;28;20967;-57
2022/08/14 02:16:24;;;;;;;7.50;5.83;;;19.90;70.50;;;;;;5052603;28;20436;-56
2022/08/14 02:18:53;;;;;;;7.73;6.93;;;19.80;71.10;;;;;;5052698;28;20433;-57
2022/08/14 02:21:21;;;;;;;6.33;5.73;;;19.80;71.40;;;;;;5052557;28;20476;-58
2022/08/14 02:23:50;;;;;;;5.73;5.23;;;19.70;71.80;;;;;;5052817;28;21218;-57
2022/08/14 02:26:19;;;;;;;8.27;5.90;;;19.80;72.10;;;;;;5052474;28;20535;-57
2022/08/14 02:28:51;;;;;;;6.70;5.80;;;19.90;72.00;;;;;;5052576;28;20464;-57
2022/08/14 02:31:19;;;;;;;6.17;5.57;;;19.90;71.90;;;;;;5052412;28;20969;-57
2022/08/14 02:33:47;;;;;;;8.03;5.80;;;20.00;71.20;;;;;;5052432;28;20544;-57
2022/08/14 02:36:15;;;;;;;5.90;5.40;;;20.00;71.00;;;;;;5052524;28;20450;-55
2022/08/14 02:38:43;;;;;;;7.13;5.30;;;19.80;72.50;;;;;;5052716;28;20495;-57
2022/08/14 02:41:16;;;;;;;5.57;5.00;;;19.60;73.50;;;;;;5052685;28;20477;-58
2022/08/14 02:43:44;;;;;;;7.53;6.17;;;19.70;72.80;;;;;;5052699;28;20499;-57
2022/08/14 02:46:13;;;;;;;5.83;5.33;;;19.90;72.90;;;;;;5052721;28;20450;-57
2022/08/14 02:48:41;;;;;;;7.03;6.40;;;19.90;72.80;;;;;;5052001;28;20489;-57
2022/08/14 02:51:11;;;;;;;6.07;5.30;;;19.70;73.40;;;;;;5052045;28;20469;-57
2022/08/14 02:53:40;;;;;;;6.23;5.73;;;19.50;73.20;;;;;;5052432;28;20429;-57
2022/08/14 02:56:09;;;;;;;5.03;4.63;;;19.30;74.40;;;;;;5052539;28;20970;-57
2022/08/14 02:58:39;;;;;;;5.70;5.20;;;19.30;75.20;;;;;;5056103;28;20437;-57
2022/08/14 03:01:08;;;;;;;5.63;5.10;;;19.30;75.20;;;;;;5055990;28;21000;-58
2022/08/14 03:03:37;;;;;;;5.23;4.83;;;19.80;73.80;;;;;;5056168;28;20449;-57
2022/08/14 03:06:06;;;;;;;7.03;5.70;;;19.60;73.70;;;;;;5055690;28;20449;-58
2022/08/14 03:08:34;;;;;;;5.30;4.80;;;19.50;74.40;;;;;;5055849;28;20513;-57
2022/08/14 03:11:05;;;;;;;8.50;5.87;;;19.40;75.20;;;;;;5055561;28;20473;-58
2022/08/14 03:13:34;;;;;;;5.07;4.57;;;19.50;75.00;;;;;;5056187;28;20429;-57
2022/08/14 03:16:02;;;;;;;5.03;4.43;;;19.60;75.50;;;;;;5055431;28;20541;-57
2022/08/14 03:18:30;;;;;;;7.13;5.63;;;19.60;75.00;;;;;;5055458;28;20503;-57
2022/08/14 03:21:00;;;;;;;5.37;4.87;;;19.40;75.80;;;;;;5055450;28;20998;-57
2022/08/14 03:23:27;;;;;;;6.20;4.50;;;19.20;76.80;;;;;;5055313;28;20941;-57
2022/08/14 03:25:54;;;;;;;6.87;5.20;;;19.20;77.10;;;;;;5055654;28;20500;-57
2022/08/14 03:28:23;;;;;;;7.37;4.90;;;19.30;76.30;;;;;;5055401;28;20500;-56
2022/08/14 03:30:50;;;;;;;5.33;4.93;;;19.40;76.00;;;;;;5055432;28;20794;-56
2022/08/14 03:33:19;;;;;;;5.77;5.20;;;19.20;76.80;;;;;;5055482;28;20567;-55
2022/08/14 03:35:46;;;;;;;6.33;5.30;;;19.10;77.60;;;;;;5055560;28;20854;-56
2022/08/14 03:38:17;;;;;;;8.10;5.73;;;;;;;;;;5055361;28;20514;-56
2022/08/14 03:40:46;;;;;;;5.40;5.00;;;18.90;78.30;;;;;;5054855;28;20473;-56
2022/08/14 03:43:14;;;;;;;7.67;6.17;;;18.90;79.30;;;;;;5055042;28;21036;-55
2022/08/14 03:45:43;;;;;;;7.67;5.53;;;19.00;79.10;;;;;;5055390;28;20531;-56
2022/08/14 03:48:18;;;;;;;5.10;4.60;;;19.00;79.20;;;;;;5054597;28;21020;-55
2022/08/14 03:50:46;;;;;;;6.33;5.73;;;18.80;79.60;;;;;;5054703;28;20465;-56
2022/08/14 03:53:15;;;;;;;5.67;5.07;;;18.80;80.10;;;;;;5055216;28;20456;-55
2022/08/14 03:55:42;;;;;;;6.23;5.60;;;18.90;80.10;;;;;;5055014;28;20929;-56
2022/08/14 03:58:10;;;;;;;8.13;4.93;;;18.90;80.00;;;;;;5055022;28;20933;-56
2022/08/14 04:00:39;;;;;;;5.10;4.63;;;18.80;79.90;;;;;;5054648;28;20978;-55
2022/08/14 04:03:10;;;;;;;5.43;4.93;;;18.70;80.90;;;;;;5054848;28;20492;-56
2022/08/14 04:05:37;;;;;;;5.20;4.60;;;18.70;81.50;;;;;;5054564;28;20498;-55
2022/08/14 04:08:08;;;;;;;7.70;6.63;;;18.70;81.70;;;;;;5054314;28;20471;-56
2022/08/14 04:10:37;;;;;;;6.20;5.50;;;;;;;;;;5054831;28;20473;-56
2022/08/14 04:13:05;;;;;;;7.10;5.53;;;18.50;82.00;;;;;;5054736;28;20503;-55
2022/08/14 04:15:32;;;;;;;5.67;5.13;;;18.40;83.30;;;;;;5054605;28;20449;-56
2022/08/14 04:18:04;;;;;;;6.73;5.07;;;18.50;83.50;;;;;;5054803;28;20480;-56
2022/08/14 04:20:31;;;;;;;5.90;4.97;;;18.70;83.30;;;;;;5054246;28;20501;-55
2022/08/14 04:22:58;;;;;;;6.07;4.90;;;18.80;82.70;;;;;;5054487;28;20957;-55
2022/08/14 04:25:25;;;;;;;9.83;5.33;;;18.90;82.80;;;;;;5054361;28;20536;-57
2022/08/14 04:27:54;;;;;;;5.27;4.87;;;18.90;82.50;;;;;;5054257;28;20476;-56
2022/08/14 04:30:21;;;;;;;5.13;4.63;;;18.90;82.70;;;;;;5054210;28;20631;-56
2022/08/14 04:32:50;;;;;;;5.37;4.73;;;18.90;82.80;;;;;;5054030;28;20445;-57
2022/08/14 04:35:17;;;;;;;5.53;4.90;;;18.70;83.80;;;;;;5054433;28;20864;-56
2022/08/14 04:45:59;;;;;;;5.47;4.97;;;18.50;85.30;;;;;;5053896;28;20409;-56
2022/08/14 04:48:27;;;;;;;5.60;5.10;;;18.60;85.30;;;;;;5053629;28;20504;-56
2022/08/14 04:50:55;;;;;;;6.70;5.20;;;18.70;85.80;;;;;;5053664;28;20547;-56
2022/08/14 04:53:24;;;;;;;6.30;4.80;;;18.70;85.50;;;;;;5053945;28;20445;-55
2022/08/14 04:55:52;;;;;;;7.30;5.33;;;18.80;85.90;;;;;;5053862;28;20536;-56
2022/08/14 04:58:23;;;;;;;5.87;5.30;;;18.70;86.10;;;;;;5053969;28;20503;-55
2022/08/14 05:00:51;;;;;;;6.10;5.50;;;18.70;86.50;;;;;;5053917;28;20552;-56
2022/08/14 05:03:20;;;;;;;7.67;5.40;;;18.70;87.50;;;;;;5053497;28;20477;-56
2022/08/14 05:05:47;;;;;;;5.53;5.10;;;18.90;86.90;;;;;;5053683;28;20449;-56
2022/08/14 05:08:15;;;;;;;5.17;4.77;;;19.00;86.40;;;;;;5053502;28;20536;-56
2022/08/14 05:10:45;;;;;;;9.13;5.10;;;19.20;86.10;;;;;;5053502;28;20571;-55
2022/08/14 05:13:13;;;;;;;9.43;5.03;;;19.30;85.80;;;;;;5053330;28;20462;-56
2022/08/14 05:15:43;;;;;;;5.93;5.43;;;19.40;85.30;;;;;;5053437;28;20492;-55
2022/08/14 05:18:12;;;;;;;5.20;4.80;;;19.50;85.00;;;;;;5053564;28;20430;-55
2022/08/14 05:20:45;;;;;;;5.30;4.80;;;19.60;84.20;;;;;;5052289;28;20504;-55
2022/08/14 05:23:13;;;;;;;6.33;4.80;;;19.60;82.70;;;;;;5053110;28;20433;-56
2022/08/14 05:25:40;;;;;;;7.00;5.00;;;19.60;83.40;;;;;;5053575;28;20449;-55
2022/08/14 05:28:10;;;;;;;5.37;4.93;;;19.70;83.50;;;;;;5053178;28;20975;-55
2022/08/14 05:30:38;;;;;;;6.37;5.30;;;19.70;82.90;;;;;;5052971;28;21039;-55
2022/08/14 05:33:07;;;;;;;7.10;5.00;;;19.70;82.50;;;;;;5053435;28;20848;-56
2022/08/14 05:35:36;;;;;;;5.10;4.70;;;19.70;82.40;;;;;;5053293;28;20840;-55
2022/08/14 05:38:08;;;;;;;5.93;5.43;;;19.70;82.40;;;;;;5053255;28;20453;-56
2022/08/14 05:40:35;;;;;;;5.60;5.20;;;19.70;80.30;;;;;;5052758;28;20473;-56
2022/08/14 05:43:03;;;;;;;5.43;4.93;;;19.90;82.80;;;;;;5053042;28;20433;-56
2022/08/14 05:45:30;;;;;;;5.37;4.87;;;19.90;82.50;;;;;;5052908;28;20433;-56
2022/08/14 05:47:58;;;;;;;5.23;4.70;;;19.90;82.40;;;;;;5052649;28;20509;-55
2022/08/14 05:50:26;;;;;;;5.57;5.03;;;20.10;82.40;;;;;;5053138;28;20524;-55
2022/08/14 05:52:54;;;;;;;7.53;5.10;;;20.10;82.40;;;;;;5052789;28;20495;-56
2022/08/14 05:55:22;;;;;;;6.23;4.83;;;20.30;80.80;;;;;;5052877;28;20461;-56
2022/08/14 05:57:52;;;;;;;5.07;4.67;;;20.60;78.80;;;;;;5053085;28;20464;-57
2022/08/14 06:00:22;;;;;;;5.40;4.90;;;20.50;78.40;;;;;;5052787;28;20454;-56
2022/08/14 06:02:49;;;;;;;5.67;4.80;;;20.60;79.00;;;;;;5053149;28;20481;-56
2022/08/14 06:05:16;;;;;;;5.17;4.50;;;20.60;79.30;;;;;;5052745;28;20452;-57
2022/08/14 06:07:45;;;;;;;4.40;4.10;;;20.50;78.30;;;;;;5053055;28;20449;-56
2022/08/14 06:10:12;;;;;;;5.03;4.60;;;20.70;79.90;;;;;;5052682;28;20985;-56
2022/08/14 06:12:40;;;;;;;5.33;4.90;;;20.60;79.80;;;;;;5053043;28;20511;-56
2022/08/14 06:15:08;;;;;;;5.47;4.93;;;20.50;79.60;;;;;;5052667;28;20445;-56
2022/08/14 06:17:44;;;;;;;5.63;5.23;;;20.60;80.40;;;;;;5052969;28;20449;-57
2022/08/14 06:20:13;;;;;;;5.23;4.70;;;20.60;79.40;;;;;;5052476;28;20968;-55
2022/08/14 06:22:41;;;;;;;5.13;4.40;;;20.70;80.00;;;;;;5052489;28;20453;-56
2022/08/14 06:25:11;;;;;;;6.57;5.47;;;20.60;79.30;;;;;;5052510;28;20487;-56
2022/08/14 06:27:38;;;;;;;4.67;4.27;;;20.70;78.90;;;;;;5052627;28;20929;-56
2022/08/14 06:30:08;;;;;;;6.63;4.40;;;20.80;77.60;;;;;;5052610;28;20541;-56
2022/08/14 06:32:35;;;;;;;4.70;4.30;;;20.90;77.80;;;;;;5056220;28;20446;-56
2022/08/14 06:35:05;;;;;;;5.43;5.03;;;20.90;76.50;;;;;;5056593;28;20452;-56
2022/08/14 06:37:40;;;;;;;5.13;4.73;;;21.10;77.50;;;;;;5056250;28;20941;-56
2022/08/14 06:40:11;;;;;;;5.00;4.60;;;21.20;75.90;;;;;;5056337;28;20837;-55
2022/08/14 06:42:39;;;;;;;4.30;3.90;;;21.30;74.40;;;;;;5056338;28;20529;-55
2022/08/14 06:45:07;;;;;;;5.30;4.80;;;21.30;73.20;;;;;;5056058;28;20539;-56
2022/08/14 06:47:35;;;;;;;4.70;4.30;;;21.30;72.40;;;;;;5055811;28;20515;-55
2022/08/14 06:50:03;;;;;;;5.60;4.50;;;21.20;72.70;;;;;;5056240;28;20473;-56
2022/08/14 06:52:31;;;;;;;5.53;4.30;;;21.30;73.90;;;;;;5056244;28;20445;-55
2022/08/14 06:54:58;;;;;;;4.40;4.10;;;21.40;73.90;;;;;;5056177;28;20449;-56
2022/08/14 06:57:36;;;;;;;4.73;4.23;;;21.50;72.50;;;;;;5056261;28;20524;-55
2022/08/14 07:00:05;;;;;;;4.70;4.13;;;21.60;71.60;;;;;;5055869;28;20429;-56
2022/08/14 07:08:02;;;;;;;4.77;4.37;;;21.80;71.30;;;;;;5055743;28;20409;-56
2022/08/14 07:10:29;;;;;;;4.53;4.10;;;22.00;69.30;;;;;;5055658;28;20496;-55
2022/08/14 07:12:58;;;;;;;4.90;4.10;;;22.10;69.70;;;;;;5055711;28;20481;-55
2022/08/14 07:15:27;;;;;;;4.30;4.00;;;22.30;69.20;;;;;;5055869;28;20449;-56
2022/08/14 07:17:54;;;;;;;5.63;5.23;;;22.50;68.40;;;;;;5055421;28;20449;-56
2022/08/14 07:20:22;;;;;;;4.07;3.77;;;22.50;68.90;;;;;;5055489;28;20461;-56
2022/08/14 07:22:49;;;;;;;4.50;4.10;;;22.70;68.80;;;;;;5055525;28;20785;-56
2022/08/14 07:25:16;;;;;;;4.30;4.00;;;22.80;69.40;;;;;;5055518;28;20445;-56
2022/08/14 07:27:44;;;;;;;4.80;4.50;;;22.90;69.00;;;;;;5055363;28;20536;-56
2022/08/14 07:30:13;;;;;;;4.80;4.40;;;22.90;67.80;;;;;;5055063;28;20563;-56
2022/08/14 07:32:41;;;;;;;4.53;4.23;;;23.00;68.00;;;;;;5055257;28;20455;-56
2022/08/14 07:35:09;;;;;;;4.90;4.50;;;23.00;69.00;;;;;;5055601;28;20544;-56
2022/08/14 07:37:36;;;;;;;4.63;4.23;;;23.10;67.70;;;;;;5055280;28;20964;-56
2022/08/14 07:40:05;;;;;;;5.50;3.80;;;23.10;67.40;;;;;;5055059;28;20461;-56
2022/08/14 07:42:32;;;;;;;7.60;4.13;;;23.20;67.00;;;;;;5054179;28;20506;-56
2022/08/14 07:45:00;;;;;;;4.33;3.93;;;23.30;66.60;;;;;;5055443;28;20445;-56
2022/08/14 07:47:29;;;;;;;4.30;4.00;;;23.50;65.50;;;;;;5054714;28;20969;-55
2022/08/14 07:50:02;;;;;;;4.10;3.80;;;23.50;63.90;;;;;;5054767;28;20888;-56
2022/08/14 07:52:30;;;;;;;4.33;4.03;;;23.50;64.30;;;;;;5055256;28;20480;-56
2022/08/14 07:54:57;;;;;;;7.30;4.37;;;23.70;64.00;;;;;;5054697;28;20449;-56
2022/08/14 07:57:26;;;;;;;3.90;3.60;;;23.80;62.40;;;;;;5054682;28;20569;-56
2022/08/14 07:59:53;;;;;;;3.73;3.40;;;23.90;61.10;;;;;;5054986;28;20818;-55
2022/08/14 08:02:20;;;;;;;7.43;3.60;;;24.00;61.60;;;;;;5054791;28;20445;-55
2022/08/14 08:04:52;;;;;;;4.30;3.90;;;;;;;;;;5054664;28;20472;-55
2022/08/14 08:07:20;;;;;;;4.20;3.83;;;24.50;59.00;;;;;;5054882;28;20433;-56
2022/08/14 08:09:53;;;;;;;4.27;3.97;;;25.20;58.90;;;;;;5054373;28;20576;-56
2022/08/14 08:12:21;;;;;;;3.67;3.37;;;26.20;58.10;;;;;;5054475;28;20467;-56
2022/08/14 08:14:50;;;;;;;4.80;3.30;;;27.10;57.20;;;;;;5054343;28;20449;-56
2022/08/14 08:17:19;;;;;;;4.47;3.03;;;27.90;55.80;;;;;;5054759;28;20550;-56
2022/08/14 08:19:47;;;;;;;3.87;3.57;;;29.00;54.80;;;;;;5054674;28;20449;-56
2022/08/14 08:22:16;;;;;;;3.50;3.20;;;29.70;53.20;;;;;;5054499;28;20561;-56
2022/08/14 08:24:43;;;;;;;4.00;3.60;;;29.70;52.50;;;;;;5054517;28;20802;-56
2022/08/14 08:27:17;;;;;;;3.43;3.03;;;29.90;52.30;;;;;;5054291;28;20452;-56
2022/08/14 08:29:44;;;;;;;5.23;3.40;;;30.10;52.00;;;;;;5054049;28;20484;-56
2022/08/14 08:32:12;;;;;;;4.57;3.87;;;30.30;51.70;;;;;;5054059;28;21008;-56
2022/08/14 08:34:47;;;;;;;3.93;3.63;;;30.20;51.10;;;;;;5054110;28;20454;-57
2022/08/14 08:37:15;;;;;;;4.30;3.37;;;30.20;50.90;;;;;;5054331;28;20949;-57
2022/08/14 08:39:44;;;;;;;3.70;2.93;;;30.50;50.60;;;;;;5053882;28;20507;-57
2022/08/14 08:42:11;;;;;;;3.70;3.40;;;30.60;50.00;;;;;;5054220;28;20852;-56
2022/08/14 08:44:39;;;;;;;3.73;3.40;;;30.50;50.20;;;;;;5054171;28;20485;-57
2022/08/14 08:47:06;;;;;;;3.70;3.40;;;30.90;50.30;;;;;;5054048;28;20449;-57
2022/08/14 08:49:41;;;;;;;4.00;3.27;;;31.10;49.80;;;;;;5053541;28;20520;-56
2022/08/14 08:52:08;;;;;;;3.30;3.00;;;31.30;49.90;;;;;;5053964;28;20472;-56
2022/08/14 08:54:38;;;;;;;3.70;3.37;;;31.40;49.70;;;;;;5053705;28;20449;-56
2022/08/14 08:57:11;;;;;;;3.23;3.03;;;31.70;49.20;;;;;;5054159;28;20453;-56
2022/08/14 08:59:39;;;;;;;3.13;2.93;;;31.80;49.20;;;;;;5053824;28;20841;-57
2022/08/14 09:02:09;;;;;;;3.87;3.23;;;31.50;48.20;;;;;;5053584;28;20499;-56
2022/08/14 09:04:38;;;;;;;7.00;2.70;;;32.00;48.60;;;;;;5053503;28;20426;-56
2022/08/14 09:07:06;;;;;;;4.20;2.90;;;;;;;;;;5053414;28;20445;-57
2022/08/14 09:09:49;;;;;;;2.90;2.70;;;31.90;46.20;;;;;;5053803;28;20481;-57
2022/08/14 09:12:20;;;;;;;3.63;3.43;;;32.00;46.50;;;;;;5053464;28;20501;-56
2022/08/14 09:14:47;;;;;;;4.00;3.70;;;32.10;46.50;;;;;;5053433;28;20436;-57
2022/08/14 09:17:15;;;;;;;5.20;3.40;;;31.40;46.00;;;;;;5053087;28;20993;-56
2022/08/14 09:19:43;;;;;;;3.40;3.10;;;30.90;46.90;;;;;;5053497;28;20496;-56
2022/08/14 09:22:12;;;;;;;3.60;3.30;;;30.90;46.70;;;;;;5053486;28;20495;-56
2022/08/14 09:24:41;;;;;;;3.00;2.80;;;31.10;46.00;;;;;;5053398;28;20445;-57
2022/08/14 09:27:08;;;;;;;3.00;2.80;;;31.10;46.50;;;;;;5053088;28;20488;-57
2022/08/14 09:29:37;;;;;;;3.93;3.63;;;31.60;46.60;;;;;;5053087;28;20477;-56
2022/08/14 09:32:06;;;;;;;3.63;3.40;;;31.90;46.70;;;;;;5053184;28;20493;-57
2022/08/14 09:34:49;;;;;;;3.27;3.07;;;32.30;46.50;;;;;;5053274;28;20480;-56
2022/08/14 09:37:42;;;;;;;3.93;3.30;;;32.30;46.10;;;;;;5053077;28;20425;-57
2022/08/14 09:40:20;;;;;;;2.97;2.77;;;31.70;46.10;;;;;;5052698;28;20484;-56
2022/08/14 09:43:00;;;;;;;3.63;3.20;;;32.80;46.50;;;;;;5052882;28;20428;-57
2022/08/14 09:45:33;;;;;;;3.80;3.47;;;33.10;46.00;;;;;;5052982;28;20770;-56
2022/08/14 09:48:01;;;;;;;3.60;3.03;;;33.20;45.40;;;;;;5052809;28;20988;-56
2022/08/14 09:50:31;;;;;;;3.10;2.90;;;32.80;45.30;;;;;;5052598;28;20488;-56
2022/08/14 09:53:42;;;;;;;4.03;3.73;;;33.00;45.30;;;;;;5052931;28;20507;-56
2022/08/14 09:56:10;;;;;;;3.60;3.17;;;32.80;45.10;;;;;;5053203;28;20437;-56
2022/08/14 09:58:40;;;;;;;3.93;3.63;;;33.10;45.10;;;;;;5053003;28;20473;-56
2022/08/14 10:01:14;;;;;;;3.07;2.87;;;33.00;44.30;;;;;;5052931;28;20500;-56
2022/08/14 10:03:49;;;;;;;4.23;3.93;;;33.10;44.90;;;;;;5052946;28;20406;-56
2022/08/14 10:06:17;;;;;;;3.27;3.07;;;33.30;44.70;;;;;;5055037;28;20460;-56
2022/08/14 10:08:49;;;;;;;3.90;3.60;;;33.40;44.40;;;;;;5056679;28;20929;-56
2022/08/14 10:11:19;;;;;;;6.20;3.30;;;33.90;44.30;;;;;;5057013;28;20520;-57
2022/08/14 10:13:48;;;;;;;4.10;3.80;;;33.00;44.20;;;;;;5056940;28;20479;-56
2022/08/14 10:16:17;;;;;;;3.57;3.30;;;33.00;44.80;;;;;;5056965;28;20848;-56
2022/08/14 10:18:44;;;;;;;3.37;3.13;;;32.90;44.40;;;;;;5056486;28;20547;-56
2022/08/14 10:21:18;;;;;;;3.67;3.37;;;33.40;44.20;;;;;;5056364;28;21020;-57
2022/08/14 10:23:48;;;;;;;3.20;3.00;;;33.40;44.20;;;;;;5056522;28;20437;-56
2022/08/14 10:26:18;;;;;;;4.00;3.70;;;33.20;44.10;;;;;;5056881;28;20460;-56
2022/08/14 10:28:48;;;;;;;5.17;3.60;;;32.90;44.30;;;;;;5056429;28;20468;-56
2022/08/14 10:31:22;;;;;;;3.70;3.50;;;33.00;44.30;;;;;;5056177;28;21028;-56
2022/08/14 10:34:05;;;;;;;3.70;3.40;;;33.60;44.20;;;;;;5056439;28;20465;-56
2022/08/14 10:36:34;;;;;;;7.87;4.00;;;32.80;44.20;;;;;;5056347;28;20515;-56
2022/08/14 10:39:04;;;;;;;4.07;3.50;;;33.50;44.30;;;;;;5056056;28;20449;-56
2022/08/14 10:41:38;;;;;;;5.73;3.60;;;34.40;43.50;;;;;;5056585;28;20522;-57
2022/08/14 10:44:11;;;;;;;3.77;3.53;;;34.20;43.00;;;;;;5056181;28;20429;-57
2022/08/14 10:46:45;;;;;;;3.73;3.43;;;34.70;42.80;;;;;;5056686;28;20452;-56
2022/08/14 10:49:20;;;;;;;3.37;3.17;;;34.40;42.80;;;;;;5056121;28;20563;-56
2022/08/14 10:52:04;;;;;;;3.70;3.50;;;34.40;42.40;;;;;;5055755;28;20571;-56
2022/08/14 10:54:34;;;;;;;4.20;3.90;;;34.40;42.90;;;;;;5056237;28;20436;-56
2022/08/14 10:57:17;;;;;;;3.20;3.00;;;34.90;42.70;;;;;;5056182;28;20869;-56
2022/08/14 10:59:50;;;;;;;3.50;3.30;;;35.00;42.30;;;;;;5056069;28;20439;-56
2022/08/14 11:02:28;;;;;;;3.70;3.40;;;35.60;42.10;;;;;;5056463;28;20461;-56
2022/08/14 11:05:05;;;;;;;3.77;3.50;;;34.80;41.80;;;;;;5056059;28;20860;-56
2022/08/14 11:07:32;;;;;;;3.70;3.40;;;34.50;42.30;;;;;;5056023;28;20432;-56
2022/08/14 11:10:01;;;;;;;4.03;3.70;;;34.40;42.40;;;;;;5055795;28;20464;-56
2022/08/14 11:12:46;;;;;;;3.70;3.40;;;34.40;42.00;;;;;;5055268;28;20569;-57
2022/08/14 11:15:16;;;;;;;3.80;3.50;;;34.80;42.40;;;;;;5055392;28;20429;-56
2022/08/14 11:17:46;;;;;;;4.47;4.17;;;34.40;42.20;;;;;;5054391;28;20548;-56
2022/08/14 11:20:14;;;;;;;3.03;2.83;;;34.60;42.30;;;;;;5055322;28;20590;-57
2022/08/14 11:22:42;;;;;;;4.00;3.60;;;34.30;41.70;;;;;;5055587;28;20441;-56
2022/08/14 11:25:12;;;;;;;4.40;3.80;;;34.30;41.70;;;;;;5055486;28;20537;-56
2022/08/14 11:27:42;;;;;;;3.57;3.27;;;34.70;42.00;;;;;;5055662;28;20536;-57
2022/08/14 11:30:12;;;;;;;4.33;3.93;;;35.00;41.70;;;;;;5055316;28;21114;-57
2022/08/14 11:32:41;;;;;;;3.20;2.90;;;34.70;41.50;;;;;;5055150;28;20516;-57
2022/08/14 11:35:14;;;;;;;4.20;3.80;;;34.30;41.50;;;;;;5055676;28;20453;-56
2022/08/14 11:37:51;;;;;;;3.80;3.50;;;34.70;41.70;;;;;;5055493;28;20425;-56
2022/08/14 11:40:19;;;;;;;4.97;4.30;;;34.50;41.70;;;;;;5055263;28;20503;-56
2022/08/14 11:42:48;;;;;;;3.37;3.07;;;34.50;41.80;;;;;;5055143;28;20448;-56
2022/08/14 11:45:17;;;;;;;3.90;3.60;;;34.90;41.50;;;;;;5055387;28;20476;-56
2022/08/14 11:47:45;;;;;;;4.27;3.97;;;34.60;41.30;;;;;;5054553;28;20567;-56
2022/08/14 11:50:17;;;;;;;3.53;3.27;;;35.00;41.00;;;;;;5054743;28;20480;-56
2022/08/14 11:52:45;;;;;;;4.27;3.87;;;34.80;41.10;;;;;;5055022;28;20496;-56
2022/08/14 11:55:14;;;;;;;3.67;3.47;;;35.00;41.00;;;;;;5055212;28;20481;-56
2022/08/14 11:57:42;;;;;;;4.37;4.03;;;35.00;41.10;;;;;;5055049;28;20445;-56
2022/08/14 12:00:12;;;;;;;4.10;3.80;;;34.00;41.70;;;;;;5054596;28;20556;-56
2022/08/14 12:02:51;;;;;;;4.30;4.00;;;33.90;41.70;;;;;;5054963;28;20548;-56
2022/08/14 12:05:32;;;;;;;3.87;3.57;;;34.10;41.60;;;;;;5054856;28;20422;-57
2022/08/14 12:08:00;;;;;;;4.23;3.93;;;34.10;41.40;;;;;;5055149;28;20429;-56
2022/08/14 12:10:28;;;;;;;3.60;3.40;;;34.70;41.30;;;;;;5054593;28;20484;-56
2022/08/14 12:12:56;;;;;;;4.17;3.87;;;35.10;40.60;;;;;;5054545;28;20560;-57
2022/08/14 12:15:34;;;;;;;4.07;3.67;;;35.10;40.60;;;;;;5054504;28;20480;-57
2022/08/14 12:18:03;;;;;;;5.40;4.07;;;34.30;40.40;;;;;;5054701;28;20855;-56
2022/08/14 12:20:35;;;;;;;3.50;3.20;;;34.40;40.20;;;;;;5054530;28;20818;-56
2022/08/14 12:23:04;;;;;;;2.97;2.77;;;33.80;40.70;;;;;;5054415;28;20436;-55
2022/08/14 12:25:31;;;;;;;3.80;3.50;;;34.10;40.70;;;;;;5054304;28;20445;-55
2022/08/14 12:28:03;;;;;;;7.93;3.77;;;34.40;40.20;;;;;;5054272;28;20925;-56
2022/08/14 12:30:33;;;;;;;3.97;3.57;;;34.60;40.10;;;;;;5053925;28;20551;-56
2022/08/14 12:33:02;;;;;;;3.97;3.67;;;34.40;40.40;;;;;;5054133;28;20512;-55
2022/08/14 12:35:42;;;;;;;3.30;3.10;;;34.50;40.40;;;;;;5054356;28;20473;-56
2022/08/14 12:38:10;;;;;;;5.60;3.50;;;34.40;40.80;;;;;;5053913;28;20435;-55
2022/08/14 12:40:47;;;;;;;3.83;3.53;;;34.60;40.50;;;;;;5053770;28;20476;-55
2022/08/14 12:43:18;;;;;;;3.67;3.37;;;34.20;40.60;;;;;;5053751;28;20440;-55
2022/08/14 12:45:49;;;;;;;3.80;3.50;;;34.20;40.40;;;;;;5054130;28;20449;-56
2022/08/14 12:48:19;;;;;;;3.80;3.20;;;34.50;40.20;;;;;;5053574;28;20542;-55
2022/08/14 12:50:50;;;;;;;3.40;3.20;;;34.60;39.60;;;;;;5053874;28;20511;-55
2022/08/14 12:53:18;;;;;;;3.23;3.03;;;33.70;39.30;;;;;;5053777;28;20552;-56
2022/08/14 12:55:46;;;;;;;3.70;2.90;;;33.80;39.70;;;;;;5053819;28;20479;-56
2022/08/14 12:58:14;;;;;;;3.50;3.20;;;33.50;39.50;;;;;;5053546;28;20448;-55
2022/08/14 13:00:50;;;;;;;4.20;2.90;;;34.10;39.70;;;;;;5053357;28;20471;-56
2022/08/14 13:03:25;;;;;;;3.70;3.40;;;34.40;39.00;;;;;;5053565;28;20437;-56
2022/08/14 13:05:55;;;;;;;3.50;3.00;;;34.40;39.60;;;;;;5053607;28;20547;-56
2022/08/14 13:08:24;;;;;;;3.40;3.10;;;34.40;39.70;;;;;;5053438;28;20520;-56
2022/08/14 13:10:52;;;;;;;3.20;2.87;;;34.10;38.70;;;;;;5053288;28;20481;-55
2022/08/14 13:13:20;;;;;;;3.10;2.90;;;34.10;38.70;;;;;;5053741;28;20524;-56
2022/08/14 13:15:51;;;;;;;3.53;3.10;;;33.60;39.10;;;;;;5053259;28;20789;-55
2022/08/14 13:18:21;;;;;;;4.57;3.23;;;33.50;39.50;;;;;;5053579;28;20426;-56